COG2DE FZWA-FZQA
Flight info
| Callsign | COG2DE |
|---|---|
| Flight time | 1h 5m |
| Altitude | 33000 |
| Route | ONTUV1B ONTUV DCT KMB DCT USDUP DCT NILMA NILMA1C |
| Aircraft | A320/M-SDE3FGHIRWY/LB1 |
Departure
| Time | 2026-04-28 08:04 |
|---|---|
| Airport | Mbuji Mayi Airport (FZWA) |
Arrival
| Time | 2026-04-28 09:09 |
|---|---|
| Airport | Lubumbashi International Airport (FZQA) |
| Time | Latitude | Longitude | Altitude | Speed | Heading |
|---|---|---|---|---|---|
| 2026-04-28 07:40 | -6.12540 | 23.57180 | 2240 ft | 0 kts | 232° |
| 2026-04-28 07:58 | -6.12545 | 23.57173 | 2240 ft | 5 kts | 234° |
| 2026-04-28 07:58 | -6.12561 | 23.57135 | 2240 ft | 6 kts | 251° |
| 2026-04-28 07:59 | -6.12574 | 23.57096 | 2239 ft | 7 kts | 252° |
| 2026-04-28 07:59 | -6.12612 | 23.57067 | 2238 ft | 10 kts | 171° |
| 2026-04-28 07:59 | -6.12693 | 23.57097 | 2238 ft | 16 kts | 160° |
| 2026-04-28 07:59 | -6.12818 | 23.57138 | 2240 ft | 21 kts | 163° |
| 2026-04-28 08:00 | -6.12952 | 23.57150 | 2241 ft | 15 kts | 158° |
| 2026-04-28 08:00 | -6.12941 | 23.57195 | 2241 ft | 6 kts | 355° |
| 2026-04-28 08:00 | -6.12913 | 23.57173 | 2241 ft | 4 kts | 324° |
| 2026-04-28 08:00 | -6.12893 | 23.57163 | 2241 ft | 3 kts | 341° |
| 2026-04-28 08:03 | -6.12891 | 23.57162 | 2241 ft | 3 kts | 341° |
| 2026-04-28 08:03 | -6.12686 | 23.57093 | 2238 ft | 73 kts | 341° |
| 2026-04-28 08:03 | -6.11955 | 23.56848 | 2242 ft | 146 kts | 341° |
| 2026-04-28 08:04 | -6.10823 | 23.56475 | 2437 ft | 183 kts | 342° |
| 2026-04-28 08:04 | -6.09625 | 23.56104 | 3314 ft | 179 kts | 344° |
| 2026-04-28 08:04 | -6.08417 | 23.55882 | 4121 ft | 176 kts | 8° |
| 2026-04-28 08:04 | -6.07377 | 23.56469 | 4436 ft | 185 kts | 57° |
| 2026-04-28 08:05 | -6.07058 | 23.57751 | 4603 ft | 204 kts | 98° |
| 2026-04-28 08:05 | -6.07791 | 23.59036 | 4800 ft | 224 kts | 143° |
| 2026-04-28 08:05 | -6.09263 | 23.59589 | 5279 ft | 232 kts | 170° |
| 2026-04-28 08:05 | -6.10831 | 23.59869 | 5915 ft | 232 kts | 159° |
| 2026-04-28 08:06 | -6.12358 | 23.60556 | 6242 ft | 252 kts | 151° |
| 2026-04-28 08:06 | -6.13955 | 23.61449 | 6624 ft | 270 kts | 148° |
| 2026-04-28 08:06 | -6.15585 | 23.62438 | 7286 ft | 275 kts | 147° |
| 2026-04-28 08:06 | -6.17222 | 23.63456 | 8041 ft | 278 kts | 146° |
| 2026-04-28 08:07 | -6.18877 | 23.64490 | 8786 ft | 281 kts | 147° |
| 2026-04-28 08:07 | -6.20547 | 23.65532 | 9536 ft | 284 kts | 147° |
| 2026-04-28 08:07 | -6.22240 | 23.66585 | 10243 ft | 288 kts | 147° |
| 2026-04-28 08:07 | -6.23997 | 23.67675 | 10516 ft | 309 kts | 147° |
| 2026-04-28 08:08 | -6.25893 | 23.68848 | 10755 ft | 328 kts | 147° |
| 2026-04-28 08:08 | -6.27860 | 23.70061 | 11276 ft | 335 kts | 147° |
| 2026-04-28 08:08 | -6.29861 | 23.71292 | 11896 ft | 339 kts | 147° |
| 2026-04-28 08:08 | -6.31889 | 23.72540 | 12526 ft | 344 kts | 147° |
| 2026-04-28 08:09 | -6.33942 | 23.73802 | 13149 ft | 348 kts | 148° |
| 2026-04-28 08:09 | -6.36020 | 23.75079 | 13758 ft | 352 kts | 148° |
| 2026-04-28 08:09 | -6.38122 | 23.76374 | 14299 ft | 356 kts | 148° |
| 2026-04-28 08:09 | -6.40251 | 23.77685 | 14841 ft | 360 kts | 148° |
| 2026-04-28 08:10 | -6.42395 | 23.79008 | 15386 ft | 363 kts | 148° |
| 2026-04-28 08:10 | -6.44542 | 23.80335 | 15922 ft | 366 kts | 148° |
| 2026-04-28 08:10 | -6.46718 | 23.81682 | 16459 ft | 369 kts | 148° |
| 2026-04-28 08:10 | -6.48916 | 23.83042 | 16982 ft | 372 kts | 148° |
| 2026-04-28 08:11 | -6.51135 | 23.84408 | 17516 ft | 375 kts | 148° |
| 2026-04-28 08:11 | -6.53371 | 23.85783 | 18025 ft | 379 kts | 148° |
| 2026-04-28 08:11 | -6.55598 | 23.87152 | 18493 ft | 382 kts | 148° |
| 2026-04-28 08:11 | -6.57869 | 23.88550 | 18945 ft | 384 kts | 148° |
| 2026-04-28 08:12 | -6.60155 | 23.89960 | 19402 ft | 387 kts | 148° |
| 2026-04-28 08:12 | -6.62454 | 23.91381 | 19861 ft | 389 kts | 148° |
| 2026-04-28 08:12 | -6.64769 | 23.92811 | 20302 ft | 392 kts | 148° |
| 2026-04-28 08:12 | -6.67102 | 23.94248 | 20769 ft | 394 kts | 148° |
| 2026-04-28 08:13 | -6.69449 | 23.95692 | 21228 ft | 397 kts | 148° |
| 2026-04-28 08:13 | -6.71808 | 23.97145 | 21682 ft | 399 kts | 148° |
| 2026-04-28 08:13 | -6.74183 | 23.98612 | 22136 ft | 402 kts | 148° |
| 2026-04-28 08:13 | -6.76562 | 24.00082 | 22577 ft | 405 kts | 148° |
| 2026-04-28 08:14 | -6.78921 | 24.01543 | 23018 ft | 407 kts | 148° |
| 2026-04-28 08:14 | -6.81336 | 24.03038 | 23452 ft | 410 kts | 148° |
| 2026-04-28 08:14 | -6.83750 | 24.04579 | 23818 ft | 412 kts | 147° |
| 2026-04-28 08:14 | -6.86147 | 24.06163 | 24169 ft | 414 kts | 146° |
| 2026-04-28 08:15 | -6.88559 | 24.07785 | 24522 ft | 417 kts | 146° |
| 2026-04-28 08:15 | -6.90971 | 24.09416 | 24863 ft | 419 kts | 146° |
| 2026-04-28 08:15 | -6.93400 | 24.11052 | 25197 ft | 421 kts | 146° |
| 2026-04-28 08:15 | -6.95844 | 24.12688 | 25525 ft | 423 kts | 146° |
| 2026-04-28 08:16 | -6.98308 | 24.14331 | 25848 ft | 425 kts | 146° |
| 2026-04-28 08:16 | -7.00780 | 24.15975 | 26161 ft | 427 kts | 146° |
| 2026-04-28 08:16 | -7.03270 | 24.17626 | 26469 ft | 430 kts | 146° |
| 2026-04-28 08:16 | -7.05780 | 24.19291 | 26763 ft | 432 kts | 146° |
| 2026-04-28 08:17 | -7.08293 | 24.20960 | 27070 ft | 434 kts | 146° |
| 2026-04-28 08:17 | -7.10816 | 24.22634 | 27358 ft | 436 kts | 146° |
| 2026-04-28 08:17 | -7.13356 | 24.24321 | 27644 ft | 438 kts | 146° |
| 2026-04-28 08:17 | -7.15904 | 24.26014 | 27924 ft | 440 kts | 146° |
| 2026-04-28 08:18 | -7.18466 | 24.27718 | 28206 ft | 442 kts | 146° |
| 2026-04-28 08:18 | -7.21040 | 24.29430 | 28486 ft | 444 kts | 146° |
| 2026-04-28 08:18 | -7.23625 | 24.31151 | 28752 ft | 446 kts | 146° |
| 2026-04-28 08:18 | -7.26223 | 24.32882 | 29003 ft | 449 kts | 146° |
| 2026-04-28 08:19 | -7.28833 | 24.34617 | 29272 ft | 451 kts | 146° |
| 2026-04-28 08:19 | -7.31350 | 24.36291 | 29512 ft | 453 kts | 146° |
| 2026-04-28 08:19 | -7.34042 | 24.38080 | 29761 ft | 455 kts | 146° |
| 2026-04-28 08:19 | -7.36719 | 24.39859 | 30007 ft | 457 kts | 146° |
| 2026-04-28 08:20 | -7.39371 | 24.41622 | 30220 ft | 459 kts | 146° |
| 2026-04-28 08:20 | -7.42046 | 24.43397 | 30419 ft | 460 kts | 146° |
| 2026-04-28 08:20 | -7.44679 | 24.45146 | 30610 ft | 462 kts | 146° |
| 2026-04-28 08:20 | -7.47360 | 24.46929 | 30797 ft | 464 kts | 146° |
| 2026-04-28 08:21 | -7.50054 | 24.48725 | 30989 ft | 466 kts | 146° |
| 2026-04-28 08:21 | -7.52760 | 24.50527 | 31177 ft | 467 kts | 146° |
| 2026-04-28 08:21 | -7.55478 | 24.52339 | 31404 ft | 467 kts | 146° |
| 2026-04-28 08:21 | -7.58188 | 24.54147 | 31676 ft | 467 kts | 146° |
| 2026-04-28 08:22 | -7.60892 | 24.55950 | 31951 ft | 466 kts | 146° |
| 2026-04-28 08:22 | -7.63597 | 24.57751 | 32213 ft | 466 kts | 146° |
| 2026-04-28 08:22 | -7.66303 | 24.59553 | 32456 ft | 466 kts | 146° |
| 2026-04-28 08:22 | -7.69009 | 24.61358 | 32695 ft | 466 kts | 146° |
| 2026-04-28 08:23 | -7.71718 | 24.63166 | 32943 ft | 467 kts | 146° |
| 2026-04-28 08:23 | -7.74426 | 24.64973 | 33029 ft | 463 kts | 145° |
| 2026-04-28 08:23 | -7.79712 | 24.68503 | 33042 ft | 452 kts | 145° |
| 2026-04-28 08:24 | -7.84942 | 24.71995 | 33039 ft | 450 kts | 146° |
| 2026-04-28 08:24 | -7.90134 | 24.75455 | 33039 ft | 450 kts | 146° |
| 2026-04-28 08:25 | -7.95351 | 24.78938 | 33040 ft | 449 kts | 145° |
| 2026-04-28 08:26 | -8.03162 | 24.84166 | 33032 ft | 449 kts | 145° |
| 2026-04-28 08:26 | -8.08373 | 24.87643 | 33030 ft | 449 kts | 146° |
| 2026-04-28 08:27 | -8.13583 | 24.91124 | 33027 ft | 449 kts | 146° |
| 2026-04-28 08:27 | -8.18797 | 24.94608 | 33023 ft | 449 kts | 146° |
| 2026-04-28 08:28 | -8.24011 | 24.98088 | 33025 ft | 449 kts | 146° |
| 2026-04-28 08:28 | -8.29222 | 25.01571 | 33024 ft | 449 kts | 146° |
| 2026-04-28 08:29 | -8.34436 | 25.05066 | 33025 ft | 450 kts | 146° |
| 2026-04-28 08:29 | -8.39619 | 25.08546 | 33028 ft | 450 kts | 145° |
| 2026-04-28 08:30 | -8.44836 | 25.12038 | 33034 ft | 450 kts | 146° |
| 2026-04-28 08:30 | -8.50056 | 25.15524 | 33034 ft | 450 kts | 146° |
| 2026-04-28 08:31 | -8.55275 | 25.19020 | 33032 ft | 449 kts | 146° |
| 2026-04-28 08:31 | -8.60484 | 25.22518 | 33028 ft | 449 kts | 146° |
| 2026-04-28 08:32 | -8.65691 | 25.26012 | 33021 ft | 449 kts | 145° |
| 2026-04-28 08:32 | -8.70768 | 25.29684 | 33020 ft | 448 kts | 142° |
| 2026-04-28 08:33 | -8.75717 | 25.33517 | 33009 ft | 448 kts | 141° |
| 2026-04-28 08:33 | -8.79832 | 25.36701 | 33006 ft | 448 kts | 142° |
| 2026-04-28 08:34 | -8.84807 | 25.40481 | 33001 ft | 449 kts | 142° |
| 2026-04-28 08:34 | -8.89806 | 25.44252 | 33001 ft | 449 kts | 142° |
| 2026-04-28 08:35 | -8.94813 | 25.48024 | 33000 ft | 449 kts | 142° |
| 2026-04-28 08:35 | -8.99818 | 25.51799 | 33000 ft | 449 kts | 142° |
| 2026-04-28 08:36 | -9.04813 | 25.55586 | 32998 ft | 448 kts | 142° |
| 2026-04-28 08:36 | -9.09801 | 25.59361 | 33000 ft | 448 kts | 142° |
| 2026-04-28 08:37 | -9.14791 | 25.63137 | 32996 ft | 448 kts | 142° |
| 2026-04-28 08:37 | -9.19787 | 25.66914 | 33000 ft | 448 kts | 142° |
| 2026-04-28 08:38 | -9.24876 | 25.70535 | 32993 ft | 448 kts | 145° |
| 2026-04-28 08:38 | -9.30048 | 25.73988 | 33001 ft | 448 kts | 146° |
| 2026-04-28 08:39 | -9.35250 | 25.77454 | 32994 ft | 448 kts | 146° |
| 2026-04-28 08:39 | -9.40419 | 25.80964 | 32996 ft | 447 kts | 145° |
| 2026-04-28 08:40 | -9.45577 | 25.84499 | 32994 ft | 447 kts | 145° |
| 2026-04-28 08:40 | -9.50741 | 25.88029 | 33000 ft | 448 kts | 145° |
| 2026-04-28 08:41 | -9.55910 | 25.91552 | 33004 ft | 447 kts | 145° |
| 2026-04-28 08:41 | -9.61075 | 25.95070 | 33007 ft | 448 kts | 145° |
| 2026-04-28 08:42 | -9.66231 | 25.98588 | 33012 ft | 448 kts | 145° |
| 2026-04-28 08:42 | -9.71384 | 26.02112 | 33017 ft | 448 kts | 145° |
| 2026-04-28 08:43 | -9.76569 | 26.05654 | 33024 ft | 449 kts | 145° |
| 2026-04-28 08:43 | -9.81761 | 26.09200 | 33026 ft | 450 kts | 145° |
| 2026-04-28 08:44 | -9.86958 | 26.12757 | 33038 ft | 450 kts | 145° |
| 2026-04-28 08:44 | -9.92126 | 26.16296 | 33049 ft | 451 kts | 145° |
| 2026-04-28 08:45 | -9.97334 | 26.19859 | 33051 ft | 451 kts | 145° |
| 2026-04-28 08:45 | -10.02549 | 26.23430 | 33060 ft | 451 kts | 145° |
| 2026-04-28 08:46 | -10.07728 | 26.26978 | 33068 ft | 450 kts | 145° |
| 2026-04-28 08:46 | -10.12899 | 26.30513 | 33069 ft | 450 kts | 145° |
| 2026-04-28 08:47 | -10.18006 | 26.34016 | 33073 ft | 449 kts | 145° |
| 2026-04-28 08:47 | -10.23195 | 26.37571 | 33078 ft | 449 kts | 145° |
| 2026-04-28 08:48 | -10.28369 | 26.41120 | 33079 ft | 448 kts | 145° |
| 2026-04-28 08:48 | -10.33479 | 26.44625 | 32841 ft | 440 kts | 145° |
| 2026-04-28 08:48 | -10.36006 | 26.46349 | 32595 ft | 433 kts | 145° |
| 2026-04-28 08:49 | -10.38497 | 26.48053 | 32172 ft | 429 kts | 144° |
| 2026-04-28 08:49 | -10.40968 | 26.49750 | 31656 ft | 427 kts | 144° |
| 2026-04-28 08:49 | -10.43426 | 26.51444 | 31159 ft | 425 kts | 144° |
| 2026-04-28 08:49 | -10.45777 | 26.53066 | 30679 ft | 423 kts | 144° |
| 2026-04-28 08:50 | -10.48217 | 26.54750 | 30194 ft | 421 kts | 144° |
| 2026-04-28 08:50 | -10.50648 | 26.56422 | 29657 ft | 419 kts | 144° |
| 2026-04-28 08:50 | -10.53051 | 26.58072 | 29205 ft | 414 kts | 144° |
| 2026-04-28 08:50 | -10.55391 | 26.59678 | 28750 ft | 411 kts | 144° |
| 2026-04-28 08:51 | -10.57751 | 26.61296 | 28299 ft | 407 kts | 144° |
| 2026-04-28 08:51 | -10.60096 | 26.62904 | 27848 ft | 404 kts | 145° |
| 2026-04-28 08:51 | -10.62392 | 26.64483 | 27404 ft | 401 kts | 144° |
| 2026-04-28 08:51 | -10.64697 | 26.66070 | 26955 ft | 398 kts | 144° |
| 2026-04-28 08:52 | -10.66992 | 26.67649 | 26506 ft | 396 kts | 144° |
| 2026-04-28 08:52 | -10.69275 | 26.69222 | 26044 ft | 394 kts | 144° |
| 2026-04-28 08:52 | -10.71548 | 26.70789 | 25573 ft | 393 kts | 144° |
| 2026-04-28 08:52 | -10.73785 | 26.72331 | 25106 ft | 392 kts | 145° |
| 2026-04-28 08:53 | -10.76047 | 26.73889 | 24625 ft | 392 kts | 145° |
| 2026-04-28 08:53 | -10.78304 | 26.75445 | 24130 ft | 392 kts | 145° |
| 2026-04-28 08:53 | -10.80515 | 26.76971 | 23644 ft | 392 kts | 145° |
| 2026-04-28 08:53 | -10.82798 | 26.78545 | 23083 ft | 391 kts | 145° |
| 2026-04-28 08:54 | -10.85047 | 26.80092 | 22594 ft | 388 kts | 145° |
| 2026-04-28 08:54 | -10.87285 | 26.81632 | 22112 ft | 386 kts | 145° |
| 2026-04-28 08:54 | -10.89491 | 26.83153 | 21710 ft | 382 kts | 145° |
| 2026-04-28 08:54 | -10.91685 | 26.84668 | 21280 ft | 379 kts | 145° |
| 2026-04-28 08:55 | -10.93867 | 26.86175 | 20783 ft | 378 kts | 145° |
| 2026-04-28 08:55 | -10.96031 | 26.87666 | 20316 ft | 376 kts | 145° |
| 2026-04-28 08:55 | -10.98182 | 26.89148 | 20011 ft | 370 kts | 145° |
| 2026-04-28 08:55 | -11.00307 | 26.90616 | 19572 ft | 368 kts | 145° |
| 2026-04-28 08:56 | -11.02424 | 26.92077 | 19168 ft | 366 kts | 145° |
| 2026-04-28 08:56 | -11.04524 | 26.93527 | 18786 ft | 364 kts | 145° |
| 2026-04-28 08:56 | -11.06581 | 26.94946 | 18430 ft | 361 kts | 145° |
| 2026-04-28 08:56 | -11.08658 | 26.96379 | 18024 ft | 359 kts | 145° |
| 2026-04-28 08:57 | -11.10715 | 26.97797 | 17610 ft | 356 kts | 145° |
| 2026-04-28 08:57 | -11.12748 | 26.99197 | 17172 ft | 349 kts | 145° |
| 2026-04-28 08:57 | -11.14747 | 27.00576 | 16434 ft | 345 kts | 145° |
| 2026-04-28 08:57 | -11.16730 | 27.01947 | 15947 ft | 343 kts | 144° |
| 2026-04-28 08:58 | -11.18699 | 27.03311 | 15560 ft | 341 kts | 144° |
| 2026-04-28 08:58 | -11.20654 | 27.04664 | 15186 ft | 339 kts | 144° |
| 2026-04-28 08:58 | -11.22584 | 27.05999 | 14888 ft | 334 kts | 144° |
| 2026-04-28 08:58 | -11.24508 | 27.07330 | 14491 ft | 333 kts | 144° |
| 2026-04-28 08:59 | -11.26420 | 27.08653 | 14115 ft | 332 kts | 144° |
| 2026-04-28 08:59 | -11.28323 | 27.09969 | 13757 ft | 329 kts | 144° |
| 2026-04-28 08:59 | -11.30203 | 27.11270 | 13161 ft | 324 kts | 144° |
| 2026-04-28 08:59 | -11.32040 | 27.12540 | 12692 ft | 313 kts | 144° |
| 2026-04-28 09:00 | -11.33807 | 27.13760 | 12321 ft | 304 kts | 145° |
| 2026-04-28 09:00 | -11.35558 | 27.14969 | 11947 ft | 303 kts | 145° |
| 2026-04-28 09:00 | -11.37298 | 27.16173 | 11563 ft | 302 kts | 145° |
| 2026-04-28 09:00 | -11.39038 | 27.17378 | 11190 ft | 301 kts | 145° |
| 2026-04-28 09:01 | -11.40767 | 27.18576 | 10815 ft | 300 kts | 145° |
| 2026-04-28 09:01 | -11.42488 | 27.19769 | 10488 ft | 298 kts | 146° |
| 2026-04-28 09:01 | -11.44204 | 27.20960 | 10113 ft | 297 kts | 146° |
| 2026-04-28 09:01 | -11.45336 | 27.21746 | 9810 ft | 299 kts | 146° |
| 2026-04-28 09:02 | -11.47618 | 27.23326 | 9330 ft | 297 kts | 146° |
| 2026-04-28 09:02 | -11.49311 | 27.24496 | 9131 ft | 292 kts | 146° |
| 2026-04-28 09:02 | -11.50985 | 27.25656 | 8758 ft | 290 kts | 145° |
| 2026-04-28 09:02 | -11.52638 | 27.26803 | 8286 ft | 284 kts | 145° |
| 2026-04-28 09:03 | -11.54263 | 27.27930 | 7692 ft | 280 kts | 144° |
| 2026-04-28 09:03 | -11.55865 | 27.29036 | 7103 ft | 276 kts | 145° |
| 2026-04-28 09:03 | -11.57432 | 27.30119 | 6690 ft | 265 kts | 144° |
| 2026-04-28 09:03 | -11.58922 | 27.31150 | 6611 ft | 253 kts | 144° |
| 2026-04-28 09:04 | -11.60332 | 27.32122 | 6520 ft | 245 kts | 144° |
| 2026-04-28 09:04 | -11.61728 | 27.33068 | 6383 ft | 240 kts | 145° |
| 2026-04-28 09:04 | -11.63119 | 27.34005 | 6287 ft | 239 kts | 145° |
| 2026-04-28 09:04 | -11.64505 | 27.34939 | 6184 ft | 238 kts | 143° |
| 2026-04-28 09:05 | -11.65573 | 27.36161 | 6079 ft | 230 kts | 111° |
| 2026-04-28 09:05 | -11.65699 | 27.37728 | 6031 ft | 220 kts | 75° |
| 2026-04-28 09:05 | -11.65079 | 27.39097 | 6075 ft | 206 kts | 64° |
| 2026-04-28 09:05 | -11.64486 | 27.40391 | 6048 ft | 200 kts | 69° |
| 2026-04-28 09:06 | -11.63950 | 27.41675 | 6038 ft | 195 kts | 70° |
| 2026-04-28 09:06 | -11.63421 | 27.42959 | 6042 ft | 197 kts | 68° |
| 2026-04-28 09:06 | -11.62898 | 27.44232 | 6012 ft | 189 kts | 70° |
| 2026-04-28 09:06 | -11.62411 | 27.45427 | 5678 ft | 176 kts | 70° |
| 2026-04-28 09:07 | -11.61944 | 27.46534 | 5406 ft | 162 kts | 68° |
| 2026-04-28 09:07 | -11.61506 | 27.47559 | 5191 ft | 154 kts | 68° |
| 2026-04-28 09:07 | -11.61086 | 27.48538 | 4981 ft | 149 kts | 69° |
| 2026-04-28 09:07 | -11.60665 | 27.49507 | 4818 ft | 149 kts | 68° |
| 2026-04-28 09:08 | -11.60247 | 27.50477 | 4565 ft | 147 kts | 69° |
| 2026-04-28 09:08 | -11.59838 | 27.51436 | 4392 ft | 148 kts | 67° |
| 2026-04-28 09:08 | -11.59435 | 27.52372 | 4296 ft | 134 kts | 68° |
| 2026-04-28 09:08 | -11.59116 | 27.53107 | 4288 ft | 90 kts | 67° |
| 2026-04-28 09:09 | -11.58920 | 27.53570 | 4291 ft | 61 kts | 66° |
| 2026-04-28 09:09 | -11.58762 | 27.53930 | 4288 ft | 51 kts | 66° |
| 2026-04-28 09:09 | -11.58641 | 27.54217 | 4289 ft | 19 kts | 66° |